createdAt,value
2022-10-11T00:01:27.371Z,30.25
2022-10-11T00:05:29.294Z,22.50
2022-10-11T00:09:31.425Z,23.88
2022-10-11T00:13:33.565Z,21.83
2022-10-11T00:17:36.287Z,23.02
2022-10-11T00:21:38.259Z,22.20
2022-10-11T00:25:40.282Z,21.90
2022-10-11T00:29:41.954Z,36.38
2022-10-11T00:33:43.975Z,22.25
2022-10-11T00:37:45.962Z,21.17
2022-10-11T00:41:49.198Z,25.08
2022-10-11T00:45:57.074Z,22.35
2022-10-11T00:50:01.609Z,22.80
2022-10-11T00:54:04.318Z,21.73
2022-10-11T00:58:06.648Z,18.63
2022-10-11T01:02:09.953Z,21.83
2022-10-11T01:06:11.900Z,24.98
2022-10-11T01:10:13.867Z,23.77
2022-10-11T01:14:34.459Z,22.58
2022-10-11T01:18:49.729Z,22.20
2022-10-11T01:23:29.305Z,25.05
2022-10-11T01:28:15.427Z,23.38
2022-10-11T01:32:30.397Z,23.85
2022-10-11T01:36:40.227Z,23.98
2022-10-11T01:40:50.873Z,24.90
2022-10-11T01:44:54.472Z,27.30
2022-10-11T01:49:00.307Z,23.35
2022-10-11T01:53:16.243Z,25.95
2022-10-11T01:57:46.088Z,25.05
2022-10-11T02:01:57.912Z,23.88
2022-10-11T02:06:12.943Z,26.27
2022-10-11T02:10:24.651Z,26.63
2022-10-11T02:14:31.565Z,22.77
2022-10-11T02:18:39.225Z,23.17
2022-10-11T02:22:44.952Z,24.77
2022-10-11T02:26:52.959Z,28.73
2022-10-11T02:30:56.712Z,25.45
2022-10-11T02:35:00.350Z,33.25
2022-10-11T02:39:12.360Z,28.45
2022-10-11T02:43:23.971Z,31.35
2022-10-11T02:47:31.003Z,21.17
2022-10-11T02:51:33.655Z,25.75
2022-10-11T02:55:36.148Z,26.20
2022-10-11T02:59:37.839Z,28.85
2022-10-11T03:03:40.097Z,25.73
2022-10-11T03:07:42.300Z,24.52
2022-10-11T03:11:44.135Z,26.60
2022-10-11T03:16:07.405Z,24.70
2022-10-11T03:20:10.066Z,27.48
2022-10-11T03:24:11.685Z,23.30
2022-10-11T03:28:13.635Z,28.77
2022-10-11T03:32:15.314Z,26.10
2022-10-11T03:36:17.576Z,33.40
2022-10-11T03:40:19.497Z,19.85
2022-10-11T03:44:21.321Z,24.90
2022-10-11T03:48:23.052Z,25.05
2022-10-11T03:52:24.994Z,21.70
2022-10-11T03:56:26.591Z,21.38
2022-10-11T04:00:28.382Z,24.63
2022-10-11T04:04:30.072Z,29.52
2022-10-11T04:08:31.923Z,24.65
2022-10-11T04:12:33.901Z,30.58
2022-10-11T04:16:38.629Z,31.58
2022-10-11T04:20:40.320Z,24.42
2022-10-11T04:24:42.149Z,29.50
2022-10-11T04:28:43.877Z,24.00
2022-10-11T04:32:45.779Z,29.00
2022-10-11T04:36:49.894Z,31.33
2022-10-11T04:40:52.092Z,30.15
2022-10-11T04:45:19.537Z,27.38
2022-10-11T04:49:21.947Z,26.90
2022-10-11T04:53:23.691Z,31.95
2022-10-11T04:57:25.487Z,33.13
2022-10-11T05:01:27.196Z,30.65
2022-10-11T05:05:29.066Z,32.35
2022-10-11T05:09:30.725Z,29.95
2022-10-11T05:13:34.339Z,29.20
2022-10-11T05:17:36.053Z,28.60
2022-10-11T05:21:37.937Z,30.27
2022-10-11T05:25:40.093Z,26.75
2022-10-11T05:29:41.963Z,31.42
2022-10-11T05:33:44.017Z,31.92
2022-10-11T05:37:45.856Z,27.08
2022-10-11T05:41:47.566Z,24.45
2022-10-11T05:45:49.401Z,30.42
2022-10-11T05:49:51.033Z,35.80
2022-10-11T05:53:52.953Z,27.33
2022-10-11T05:57:56.104Z,40.90
2022-10-11T06:01:57.912Z,36.22
2022-10-11T06:06:02.730Z,35.58
2022-10-11T06:10:05.909Z,36.20
2022-10-11T06:14:08.599Z,40.70
2022-10-11T06:18:10.519Z,35.88
2022-10-11T06:22:12.538Z,37.85
2022-10-11T06:26:14.373Z,48.40
2022-10-11T06:30:16.198Z,44.08
2022-10-11T06:34:18.000Z,38.92
2022-10-11T06:38:19.672Z,42.95
2022-10-11T06:42:21.586Z,41.00
2022-10-11T06:46:26.654Z,47.70
2022-10-11T06:50:54.310Z,44.72
2022-10-11T06:54:54.375Z,39.42
2022-10-11T06:58:57.875Z,39.15
2022-10-11T07:03:00.406Z,38.65
2022-10-11T07:07:03.916Z,37.78
2022-10-11T07:11:07.463Z,34.75
2022-10-11T07:15:11.670Z,32.13
2022-10-11T07:19:13.492Z,35.28
2022-10-11T07:23:15.794Z,35.72
2022-10-11T07:27:17.649Z,36.90
2022-10-11T07:31:24.917Z,32.75
2022-10-11T07:35:31.523Z,34.50
2022-10-11T07:39:34.621Z,33.08
2022-10-11T07:43:37.912Z,33.47
2022-10-11T07:47:40.060Z,29.98
2022-10-11T07:51:41.908Z,41.58
2022-10-11T07:55:43.799Z,34.88
2022-10-11T07:59:50.002Z,28.15
2022-10-11T08:03:52.360Z,27.00
2022-10-11T08:07:54.654Z,33.60
2022-10-11T08:11:56.624Z,26.58
2022-10-11T08:15:58.614Z,30.70
2022-10-11T08:20:00.618Z,24.65
2022-10-11T08:24:04.520Z,25.35
2022-10-11T08:28:07.312Z,24.27
2022-10-11T08:32:11.905Z,27.10
2022-10-11T08:36:13.757Z,25.08
2022-10-11T08:40:19.027Z,28.95
2022-10-11T08:45:09.501Z,20.42
2022-10-11T08:49:07.456Z,22.13
2022-10-11T08:53:23.872Z,24.92
2022-10-11T08:57:29.323Z,25.63
2022-10-11T09:01:31.879Z,22.02
2022-10-11T09:05:49.935Z,22.77
2022-10-11T09:10:26.526Z,26.83
2022-10-11T09:14:33.922Z,25.33
2022-10-11T09:19:35.111Z,20.58
2022-10-11T09:24:04.719Z,22.77
2022-10-11T09:28:37.001Z,37.25
2022-10-11T09:32:42.391Z,19.45
2022-10-11T09:36:54.980Z,21.60
2022-10-11T09:41:11.694Z,21.85
2022-10-11T09:45:18.423Z,19.70
2022-10-11T09:49:25.513Z,18.13
2022-10-11T09:53:54.087Z,13.95
2022-10-11T09:57:55.935Z,17.08
2022-10-11T10:02:12.647Z,14.45
2022-10-11T10:06:40.505Z,15.75
2022-10-11T10:11:09.636Z,16.38
2022-10-11T10:15:19.551Z,10.85
2022-10-11T10:19:21.968Z,20.95
2022-10-11T10:23:27.985Z,13.05
2022-10-11T10:27:30.605Z,10.73
2022-10-11T10:32:13.810Z,18.30
2022-10-11T10:36:21.921Z,14.57
2022-10-11T10:40:37.093Z,14.43
2022-10-11T10:44:38.994Z,9.13
2022-10-11T10:49:41.091Z,12.55
2022-10-11T10:53:28.057Z,9.00
2022-10-11T10:57:48.692Z,11.55
2022-10-11T11:02:16.047Z,7.28
2022-10-11T11:06:50.075Z,10.90
2022-10-11T11:11:16.782Z,16.73
2022-10-11T11:15:50.872Z,9.43
2022-10-11T11:20:08.801Z,9.15
2022-10-11T11:24:13.418Z,11.35
2022-10-11T11:28:27.920Z,10.65
2022-10-11T11:33:06.759Z,10.27
2022-10-11T11:37:28.717Z,16.50
2022-10-11T11:41:40.831Z,5.65
2022-10-11T11:45:49.909Z,10.18
2022-10-11T11:50:04.014Z,8.07
2022-10-11T11:54:40.533Z,9.60
2022-10-11T11:59:03.268Z,4.55
2022-10-11T12:03:16.275Z,5.47
2022-10-11T12:07:23.687Z,10.57
2022-10-11T12:11:35.393Z,6.10
2022-10-11T12:15:37.612Z,10.45
2022-10-11T12:19:42.635Z,6.68
2022-10-11T12:24:22.894Z,10.68
2022-10-11T12:29:12.796Z,8.30
2022-10-11T12:33:30.870Z,6.67
2022-10-11T12:38:38.492Z,8.77
2022-10-11T12:43:10.190Z,10.25
2022-10-11T12:47:42.934Z,11.15
2022-10-11T12:52:14.249Z,9.60
2022-10-11T12:56:29.380Z,8.80
2022-10-11T13:00:40.336Z,6.72
2022-10-11T13:04:42.270Z,9.80
2022-10-11T13:08:50.671Z,9.65
2022-10-11T13:12:54.957Z,12.48
2022-10-11T13:17:03.450Z,12.68
2022-10-11T13:21:19.087Z,10.48
2022-10-11T13:25:36.246Z,7.15
2022-10-11T13:29:45.507Z,7.93
2022-10-11T13:33:48.146Z,15.90
2022-10-11T13:37:49.958Z,9.90
2022-10-11T13:41:52.174Z,6.53
2022-10-11T13:45:55.824Z,10.40
2022-10-11T13:50:02.175Z,6.20
2022-10-11T13:54:09.458Z,9.48
2022-10-11T13:58:19.985Z,9.32
2022-10-11T14:02:23.991Z,9.50
2022-10-11T14:06:40.578Z,18.92
2022-10-11T14:10:46.722Z,8.88
2022-10-11T14:14:48.924Z,8.77
2022-10-11T14:19:20.053Z,12.48
2022-10-11T14:23:21.912Z,9.90
2022-10-11T14:27:28.110Z,9.10
2022-10-11T14:31:30.484Z,10.95
2022-10-11T14:35:32.906Z,9.25
2022-10-11T14:39:34.991Z,7.28
2022-10-11T14:43:36.723Z,8.25
2022-10-11T14:47:42.960Z,12.95
2022-10-11T14:51:48.014Z,12.07
2022-10-11T14:55:50.029Z,11.88
2022-10-11T14:59:52.030Z,10.02
2022-10-11T15:03:53.797Z,19.60
2022-10-11T15:07:55.527Z,20.63
2022-10-11T15:11:58.095Z,17.85
2022-10-11T15:16:00.007Z,12.18
2022-10-11T15:20:02.103Z,10.80
2022-10-11T15:24:04.087Z,21.60
2022-10-11T15:28:07.044Z,22.90
2022-10-11T15:32:09.155Z,37.67
2022-10-11T15:36:14.195Z,36.08
2022-10-11T15:40:40.794Z,46.10
2022-10-11T15:44:42.605Z,33.30
2022-10-11T15:48:45.439Z,53.35
2022-10-11T15:52:47.464Z,53.35
2022-10-11T15:56:49.446Z,33.63
2022-10-11T16:00:54.179Z,79.95
2022-10-11T16:04:55.956Z,34.92
2022-10-11T16:08:57.885Z,35.13
2022-10-11T16:13:00.084Z,87.53
2022-10-11T16:17:04.048Z,169.43
2022-10-11T16:21:08.929Z,168.63
2022-10-11T16:25:11.241Z,125.35
2022-10-11T16:29:13.033Z,151.65
2022-10-11T16:33:14.942Z,100.22
2022-10-11T16:37:17.101Z,68.88
2022-10-11T16:41:18.991Z,49.65
2022-10-11T16:45:21.016Z,78.90
2022-10-11T16:49:26.478Z,61.92
2022-10-11T16:53:28.198Z,77.20
2022-10-11T16:57:54.981Z,70.70
2022-10-11T17:01:57.955Z,85.93
2022-10-11T17:05:59.594Z,60.53
2022-10-11T17:10:01.789Z,58.90
2022-10-11T17:14:05.161Z,52.38
2022-10-11T17:18:07.113Z,28.30
2022-10-11T17:22:13.225Z,24.75
2022-10-11T17:26:20.047Z,30.17
2022-10-11T17:30:22.795Z,19.35
2022-10-11T17:34:25.086Z,16.60
2022-10-11T17:38:27.715Z,15.27
2022-10-11T17:42:29.675Z,23.10
2022-10-11T17:46:34.301Z,24.98
2022-10-11T17:50:40.382Z,49.78
2022-10-11T17:54:42.084Z,31.20
2022-10-11T17:58:45.590Z,45.88
2022-10-11T18:02:47.401Z,51.97
2022-10-11T18:06:49.747Z,65.80
2022-10-11T18:10:51.440Z,59.53
2022-10-11T18:14:53.341Z,65.20
2022-10-11T18:18:57.308Z,96.40
2022-10-11T18:23:00.081Z,72.93
2022-10-11T18:27:02.141Z,64.97
2022-10-11T18:31:12.500Z,56.10
2022-10-11T18:35:15.272Z,39.08
2022-10-11T18:39:17.245Z,35.33
2022-10-11T18:43:18.859Z,25.60
2022-10-11T18:47:20.808Z,26.60
2022-10-11T18:51:24.728Z,32.78
2022-10-11T18:55:26.663Z,42.15
2022-10-11T18:59:28.355Z,67.70
2022-10-11T19:03:34.975Z,87.45
2022-10-11T19:07:37.521Z,88.55
2022-10-11T19:11:40.308Z,86.53
2022-10-11T19:15:41.933Z,77.57
2022-10-11T19:19:43.868Z,74.65
2022-10-11T19:23:47.043Z,80.30
2022-10-11T19:27:48.907Z,74.30
2022-10-11T19:31:55.774Z,74.57
2022-10-11T19:35:59.453Z,68.65
2022-10-11T19:40:01.320Z,73.57
2022-10-11T19:44:03.490Z,74.32
2022-10-11T19:48:05.281Z,90.10
2022-10-11T19:52:09.384Z,77.63
2022-10-11T19:56:14.609Z,72.97
2022-10-11T20:00:17.033Z,69.07
2022-10-11T20:04:39.943Z,64.45
2022-10-11T20:08:41.012Z,64.05
2022-10-11T20:12:45.940Z,71.40
2022-10-11T20:16:50.161Z,62.97
2022-10-11T20:20:53.639Z,70.22
2022-10-11T20:24:55.910Z,77.40
2022-10-11T20:28:58.030Z,92.93
2022-10-11T20:33:00.073Z,109.93
2022-10-11T20:37:01.957Z,115.15
2022-10-11T20:41:16.050Z,140.50
2022-10-11T20:45:17.653Z,154.32
2022-10-11T20:49:19.984Z,147.07
2022-10-11T20:53:22.075Z,122.95
2022-10-11T20:57:23.942Z,100.10
2022-10-11T21:01:28.957Z,102.28
2022-10-11T21:05:30.975Z,109.50
2022-10-11T21:09:32.601Z,88.18
2022-10-11T21:13:34.872Z,89.07
2022-10-11T21:17:36.528Z,90.32
2022-10-11T21:21:38.471Z,95.07
2022-10-11T21:25:40.691Z,122.07
2022-10-11T21:29:42.552Z,178.88
2022-10-11T21:33:44.912Z,180.52
2022-10-11T21:37:47.023Z,195.00
2022-10-11T21:41:48.670Z,187.13
2022-10-11T21:45:50.833Z,154.52
2022-10-11T21:49:52.529Z,143.85
2022-10-11T21:53:56.146Z,147.50
2022-10-11T21:57:57.878Z,117.15
2022-10-11T22:02:01.980Z,121.93
2022-10-11T22:06:04.383Z,136.40
2022-10-11T22:10:06.409Z,153.45
2022-10-11T22:14:08.301Z,165.20
2022-10-11T22:18:10.104Z,199.25
2022-10-11T22:22:11.915Z,148.85
2022-10-11T22:26:16.621Z,152.90
2022-10-11T22:30:18.347Z,160.43
2022-10-11T22:34:20.225Z,150.88
2022-10-11T22:38:22.215Z,146.07
2022-10-11T22:42:27.557Z,139.57
2022-10-11T22:46:30.142Z,145.07
2022-10-11T22:50:32.380Z,112.07
2022-10-11T22:54:33.972Z,100.80
2022-10-11T22:58:35.983Z,94.15
2022-10-11T23:02:37.690Z,105.35
2022-10-11T23:06:39.513Z,93.93
2022-10-11T23:10:41.119Z,80.85
2022-10-11T23:14:43.217Z,79.50
2022-10-11T23:18:44.950Z,75.65
2022-10-11T23:22:46.803Z,77.60
2022-10-11T23:26:48.450Z,74.45
2022-10-11T23:30:50.329Z,86.18
2022-10-11T23:34:51.937Z,83.85
2022-10-11T23:38:56.298Z,72.00
2022-10-11T23:42:57.925Z,76.70
2022-10-11T23:46:59.796Z,89.35
2022-10-11T23:51:01.604Z,71.35
2022-10-11T23:55:04.203Z,85.85
2022-10-11T23:59:05.912Z,68.32
